createdAt,value
2022-10-17T00:03:00.343Z,43.15
2022-10-17T00:06:13.087Z,45.17
2022-10-17T00:09:16.762Z,38.40
2022-10-17T00:12:20.787Z,42.43
2022-10-17T00:15:23.851Z,39.50
2022-10-17T00:18:27.284Z,36.85
2022-10-17T00:21:30.934Z,34.53
2022-10-17T00:24:34.848Z,35.15
2022-10-17T00:27:40.522Z,42.67
2022-10-17T00:30:44.398Z,39.63
2022-10-17T00:33:48.237Z,38.17
2022-10-17T00:36:52.634Z,34.03
2022-10-17T00:39:56.219Z,35.33
2022-10-17T00:42:59.555Z,34.00
2022-10-17T00:46:03.177Z,40.08
2022-10-17T00:49:09.678Z,33.90
2022-10-17T00:52:18.975Z,32.58
2022-10-17T00:55:30.214Z,31.08
2022-10-17T00:58:34.432Z,31.23
2022-10-17T01:01:38.246Z,32.63
2022-10-17T01:04:45.219Z,32.00
2022-10-17T01:07:51.641Z,30.43
2022-10-17T01:11:11.008Z,29.85
2022-10-17T01:14:33.425Z,26.23
2022-10-17T01:17:56.557Z,23.90
2022-10-17T01:21:41.002Z,24.30
2022-10-17T01:25:00.309Z,17.97
2022-10-17T01:28:37.721Z,15.13
2022-10-17T01:31:53.423Z,18.73
2022-10-17T01:35:27.756Z,20.48
2022-10-17T01:38:40.327Z,17.93
2022-10-17T01:41:52.859Z,18.00
2022-10-17T01:44:58.789Z,14.25
2022-10-17T01:48:07.900Z,13.80
2022-10-17T01:51:38.809Z,12.43
2022-10-17T01:54:50.584Z,11.70
2022-10-17T01:57:59.058Z,13.50
2022-10-17T02:01:07.342Z,11.68
2022-10-17T02:04:12.410Z,9.13
2022-10-17T02:07:19.309Z,14.57
2022-10-17T02:10:32.552Z,7.37
2022-10-17T02:13:42.977Z,7.80
2022-10-17T02:16:55.600Z,6.93
2022-10-17T02:20:18.483Z,6.88
2022-10-17T02:23:36.724Z,6.95
2022-10-17T02:27:12.551Z,6.63
2022-10-17T02:30:33.232Z,6.90
2022-10-17T02:34:02.112Z,4.32
2022-10-17T02:37:08.663Z,6.13
2022-10-17T02:40:15.053Z,6.75
2022-10-17T02:43:20.179Z,7.03
2022-10-17T02:46:27.735Z,8.30
2022-10-17T02:49:37.319Z,5.78
2022-10-17T02:52:54.039Z,5.18
2022-10-17T02:56:04.190Z,4.38
2022-10-17T02:59:12.359Z,2.83
2022-10-17T03:02:16.023Z,4.30
2022-10-17T03:05:23.883Z,4.22
2022-10-17T03:08:27.571Z,3.83
2022-10-17T03:11:32.540Z,4.30
2022-10-17T03:14:36.761Z,5.43
2022-10-17T03:17:41.190Z,4.87
2022-10-17T03:20:45.336Z,5.25
2022-10-17T03:23:49.612Z,5.10
2022-10-17T03:26:55.038Z,4.53
2022-10-17T03:29:59.733Z,6.70
2022-10-17T03:33:03.423Z,6.17
2022-10-17T03:36:14.121Z,7.63
2022-10-17T03:39:18.039Z,7.68
2022-10-17T03:42:22.135Z,6.78
2022-10-17T03:45:25.908Z,6.20
2022-10-17T03:48:31.873Z,4.73
2022-10-17T03:51:35.905Z,5.78
2022-10-17T03:54:43.668Z,5.28
2022-10-17T03:57:47.572Z,4.70
2022-10-17T04:00:53.970Z,3.17
2022-10-17T04:03:58.244Z,3.23
2022-10-17T04:07:05.858Z,3.78
2022-10-17T04:10:12.277Z,2.83
2022-10-17T04:13:16.055Z,2.72
2022-10-17T04:16:19.440Z,2.40
2022-10-17T04:19:32.580Z,3.40
2022-10-17T04:22:35.954Z,2.72
2022-10-17T04:25:39.291Z,2.28
2022-10-17T04:28:42.156Z,2.00
2022-10-17T04:31:45.209Z,1.30
2022-10-17T04:35:03.429Z,1.17
2022-10-17T04:38:08.197Z,1.20
2022-10-17T04:41:14.510Z,1.83
2022-10-17T04:44:17.499Z,1.50
2022-10-17T04:47:26.755Z,2.13
2022-10-17T04:50:31.111Z,1.97
2022-10-17T04:54:02.764Z,2.05
2022-10-17T04:57:06.367Z,2.50
2022-10-17T05:03:41.771Z,2.30
2022-10-17T05:06:45.464Z,1.30
2022-10-17T05:09:59.691Z,2.30
2022-10-17T05:13:02.722Z,1.45
2022-10-17T05:16:08.716Z,2.20
2022-10-17T05:19:12.662Z,2.37
2022-10-17T05:22:22.366Z,2.00
2022-10-17T05:25:26.363Z,2.33
2022-10-17T05:28:29.355Z,1.70
2022-10-17T05:31:36.210Z,6.88
2022-10-17T05:34:41.209Z,3.30
2022-10-17T05:37:45.259Z,2.30
2022-10-17T05:40:48.957Z,2.42
2022-10-17T05:43:52.178Z,1.67
2022-10-17T05:47:01.321Z,1.10
2022-10-17T05:50:05.084Z,0.90
2022-10-17T05:53:20.859Z,1.10
2022-10-17T05:56:27.363Z,1.40
2022-10-17T05:59:31.037Z,1.92
2022-10-17T06:02:46.389Z,1.70
2022-10-17T06:05:52.478Z,3.30
2022-10-17T06:08:57.038Z,1.70
2022-10-17T06:12:07.350Z,2.55
2022-10-17T06:15:11.352Z,1.88
2022-10-17T06:18:16.861Z,1.75
2022-10-17T06:21:24.621Z,2.27
2022-10-17T06:24:32.835Z,1.90
2022-10-17T06:27:39.760Z,1.60
2022-10-17T06:30:44.058Z,1.38
2022-10-17T06:33:47.883Z,2.10
2022-10-17T06:36:52.105Z,1.40
2022-10-17T06:39:56.096Z,1.80
2022-10-17T06:43:01.414Z,1.42
2022-10-17T06:46:30.275Z,1.95
2022-10-17T06:49:40.123Z,1.40
2022-10-17T06:53:15.888Z,1.70
2022-10-17T06:56:25.858Z,1.00
2022-10-17T06:59:59.106Z,1.20
2022-10-17T07:03:11.035Z,1.58
2022-10-17T07:06:14.738Z,1.65
2022-10-17T07:09:19.858Z,1.40
2022-10-17T07:12:24.785Z,1.40
2022-10-17T07:15:28.772Z,1.20
2022-10-17T07:18:32.084Z,1.20
2022-10-17T07:21:39.005Z,2.45
2022-10-17T07:24:46.195Z,1.97
2022-10-17T07:27:55.943Z,1.60
2022-10-17T07:31:05.366Z,0.80
2022-10-17T07:34:09.578Z,0.68
2022-10-17T07:37:13.146Z,1.15
2022-10-17T07:40:22.927Z,1.73
2022-10-17T07:43:29.144Z,2.33
2022-10-17T07:46:34.479Z,1.02
2022-10-17T07:49:42.971Z,1.00
2022-10-17T07:52:47.099Z,1.10
2022-10-17T07:55:51.903Z,1.27
2022-10-17T08:02:01.363Z,2.08
2022-10-17T08:05:05.563Z,1.92
2022-10-17T08:08:09.275Z,2.10
2022-10-17T08:11:15.831Z,4.13
2022-10-17T08:14:19.394Z,2.57
2022-10-17T08:17:23.161Z,2.17
2022-10-17T08:20:27.241Z,2.53
2022-10-17T08:23:31.319Z,2.00
2022-10-17T08:26:37.956Z,2.10
2022-10-17T08:29:43.419Z,3.20
2022-10-17T08:32:47.154Z,2.47
2022-10-17T08:35:51.200Z,3.10
2022-10-17T08:38:54.722Z,2.85
2022-10-17T08:42:19.109Z,2.47
2022-10-17T08:45:36.261Z,4.37
2022-10-17T08:48:46.708Z,2.65
2022-10-17T08:52:00.341Z,2.55
2022-10-17T08:55:04.240Z,3.50
2022-10-17T08:58:16.189Z,4.03
2022-10-17T09:01:47.142Z,2.90
2022-10-17T09:05:26.696Z,2.72
2022-10-17T09:09:11.644Z,2.35
2022-10-17T09:12:36.265Z,4.22
2022-10-17T09:15:45.325Z,7.03
2022-10-17T09:19:02.040Z,7.33
2022-10-17T09:22:14.362Z,8.45
2022-10-17T09:25:20.604Z,10.38
2022-10-17T09:28:26.813Z,24.13
2022-10-17T09:31:36.125Z,17.47
2022-10-17T09:34:40.135Z,27.17
2022-10-17T09:37:43.460Z,26.90
2022-10-17T09:40:57.423Z,28.20
2022-10-17T09:44:14.558Z,34.40
2022-10-17T09:47:24.343Z,41.70
2022-10-17T09:50:33.514Z,30.03
2022-10-17T09:53:40.787Z,29.02
2022-10-17T09:57:05.087Z,23.90
2022-10-17T10:00:20.742Z,25.35
2022-10-17T10:03:26.575Z,26.63
2022-10-17T10:06:30.505Z,23.53
2022-10-17T10:09:39.468Z,25.45
2022-10-17T10:13:04.540Z,22.73
2022-10-17T10:16:42.137Z,19.20
2022-10-17T10:19:51.906Z,20.90
2022-10-17T10:23:18.229Z,23.98
2022-10-17T10:26:28.042Z,27.70
2022-10-17T10:29:37.268Z,34.20
2022-10-17T10:32:40.624Z,39.58
2022-10-17T10:35:43.863Z,34.30
2022-10-17T10:38:54.976Z,31.55
2022-10-17T10:41:59.418Z,29.70
2022-10-17T10:45:42.845Z,36.00
2022-10-17T10:48:59.107Z,28.83
2022-10-17T10:52:05.617Z,31.07
2022-10-17T10:55:37.982Z,31.23
2022-10-17T10:59:05.622Z,29.48
2022-10-17T11:02:38.952Z,28.35
2022-10-17T11:05:59.755Z,36.10
2022-10-17T11:09:12.087Z,49.90
2022-10-17T11:12:24.363Z,54.97
2022-10-17T11:15:43.742Z,65.57
2022-10-17T11:19:16.778Z,58.80
2022-10-17T11:22:29.267Z,42.10
2022-10-17T11:25:37.277Z,36.33
2022-10-17T11:28:40.283Z,30.85
2022-10-17T11:31:50.112Z,23.73
2022-10-17T11:34:58.924Z,23.05
2022-10-17T11:38:21.311Z,22.35
2022-10-17T11:41:47.500Z,20.63
2022-10-17T11:44:57.449Z,19.33
2022-10-17T11:48:07.142Z,20.63
2022-10-17T11:54:46.202Z,24.65
2022-10-17T11:57:55.732Z,24.17
2022-10-17T12:01:32.678Z,25.92
2022-10-17T12:04:46.129Z,35.70
2022-10-17T12:08:16.554Z,38.20
2022-10-17T12:11:38.227Z,32.50
2022-10-17T12:14:48.125Z,29.73
2022-10-17T12:18:04.907Z,28.92
2022-10-17T12:21:08.617Z,30.23
2022-10-17T12:24:42.984Z,43.80
2022-10-17T12:27:48.114Z,36.42
2022-10-17T12:31:04.101Z,32.77
2022-10-17T12:34:18.480Z,24.88
2022-10-17T12:37:44.327Z,25.25
2022-10-17T12:40:51.388Z,32.80
2022-10-17T12:43:55.966Z,32.00
2022-10-17T12:47:10.078Z,32.67
2022-10-17T12:50:51.543Z,32.63
2022-10-17T12:54:03.046Z,41.55
2022-10-17T12:57:35.629Z,36.95
2022-10-17T13:01:11.685Z,42.08
2022-10-17T13:04:14.556Z,38.30
2022-10-17T13:07:23.486Z,41.38
2022-10-17T13:10:34.817Z,41.08
2022-10-17T13:13:52.773Z,39.78
2022-10-17T13:17:02.861Z,37.90
2022-10-17T13:20:29.051Z,37.00
2022-10-17T13:23:37.353Z,33.97
2022-10-17T13:26:46.342Z,31.02
2022-10-17T13:29:50.469Z,26.55
2022-10-17T13:32:53.825Z,28.90
2022-10-17T13:36:01.198Z,22.23
2022-10-17T13:39:13.661Z,18.63
2022-10-17T13:42:26.832Z,22.13
2022-10-17T13:45:33.204Z,18.95
2022-10-17T13:48:39.251Z,22.63
2022-10-17T13:51:48.353Z,23.00
2022-10-17T13:54:54.554Z,18.17
2022-10-17T13:57:57.919Z,18.38
2022-10-17T14:01:01.306Z,23.52
2022-10-17T14:04:11.643Z,29.83
2022-10-17T14:07:34.211Z,28.55
2022-10-17T14:10:43.655Z,37.35
2022-10-17T14:13:51.562Z,50.33
2022-10-17T14:16:55.645Z,59.92
2022-10-17T14:23:33.966Z,76.30
2022-10-17T14:26:54.011Z,52.47
2022-10-17T14:30:03.196Z,50.15
2022-10-17T14:33:13.439Z,53.28
2022-10-17T14:36:17.312Z,52.13
2022-10-17T14:39:25.046Z,51.95
2022-10-17T14:42:28.875Z,53.78
2022-10-17T14:45:38.086Z,47.40
2022-10-17T14:48:43.742Z,46.97
2022-10-17T14:52:18.941Z,49.83
2022-10-17T14:55:25.351Z,51.33
2022-10-17T14:58:34.286Z,51.22
2022-10-17T15:01:37.807Z,52.50
2022-10-17T15:04:42.225Z,47.40
2022-10-17T15:07:45.190Z,49.95
2022-10-17T15:10:49.713Z,50.20
2022-10-17T15:13:53.444Z,51.28
2022-10-17T15:16:56.809Z,49.37
2022-10-17T15:20:00.204Z,63.92
2022-10-17T15:23:04.836Z,62.05
2022-10-17T15:26:26.368Z,56.78
2022-10-17T15:29:29.933Z,48.33
2022-10-17T15:32:33.844Z,36.85
2022-10-17T15:35:37.976Z,33.13
2022-10-17T15:38:40.985Z,65.25
2022-10-17T15:41:45.069Z,81.03
2022-10-17T15:44:50.619Z,86.50
2022-10-17T15:47:57.170Z,82.45
2022-10-17T15:51:00.255Z,81.72
2022-10-17T15:54:05.477Z,79.15
2022-10-17T15:57:24.144Z,71.73
2022-10-17T16:00:28.476Z,62.88
2022-10-17T16:03:32.370Z,43.35
2022-10-17T16:06:36.498Z,41.20
2022-10-17T16:09:40.264Z,32.20
2022-10-17T16:12:44.452Z,29.73
2022-10-17T16:15:47.588Z,25.73
2022-10-17T16:18:50.604Z,32.35
2022-10-17T16:21:56.276Z,81.70
2022-10-17T16:25:08.415Z,81.63
2022-10-17T16:28:12.510Z,89.32
2022-10-17T16:31:37.203Z,110.50
2022-10-17T16:34:41.013Z,112.60
2022-10-17T16:37:44.727Z,90.18
2022-10-17T16:40:47.702Z,55.22
2022-10-17T16:43:51.777Z,65.00
2022-10-17T16:46:54.908Z,59.55
2022-10-17T16:49:58.679Z,73.38
2022-10-17T16:53:04.600Z,52.95
2022-10-17T16:56:09.192Z,46.05
2022-10-17T16:59:13.221Z,39.25
2022-10-17T17:02:18.921Z,38.15
2022-10-17T17:05:24.182Z,37.60
2022-10-17T17:08:27.928Z,38.90
2022-10-17T17:11:33.322Z,33.45
2022-10-17T17:14:36.515Z,47.63
2022-10-17T17:17:55.759Z,34.65
2022-10-17T17:21:01.371Z,44.00
2022-10-17T17:24:06.386Z,60.67
2022-10-17T17:27:12.822Z,96.57
2022-10-17T17:30:18.438Z,89.22
2022-10-17T17:33:25.492Z,89.30
2022-10-17T17:36:31.432Z,81.38
2022-10-17T17:39:35.099Z,77.68
2022-10-17T17:42:38.916Z,70.38
2022-10-17T17:45:42.684Z,66.13
2022-10-17T17:48:48.637Z,64.72
2022-10-17T17:51:51.589Z,46.85
2022-10-17T17:54:55.079Z,31.33
2022-10-17T17:57:58.072Z,29.13
2022-10-17T18:01:02.751Z,28.23
2022-10-17T18:04:09.138Z,35.50
2022-10-17T18:07:12.996Z,70.47
2022-10-17T18:10:16.960Z,65.93
2022-10-17T18:13:21.577Z,60.78
2022-10-17T18:16:26.550Z,58.53
2022-10-17T18:19:29.758Z,86.80
2022-10-17T18:22:33.136Z,79.87
2022-10-17T18:25:37.269Z,68.57
2022-10-17T18:31:45.361Z,60.70
2022-10-17T18:34:48.132Z,62.65
2022-10-17T18:37:51.090Z,58.80
2022-10-17T18:41:04.239Z,52.38
2022-10-17T18:44:07.568Z,39.47
2022-10-17T18:47:11.723Z,46.55
2022-10-17T18:50:15.712Z,46.45
2022-10-17T18:53:19.694Z,43.97
2022-10-17T18:56:24.331Z,37.92
2022-10-17T18:59:28.039Z,38.60
2022-10-17T19:02:35.526Z,34.78
2022-10-17T19:05:41.732Z,37.92
2022-10-17T19:08:46.139Z,50.65
2022-10-17T19:11:49.053Z,62.13
2022-10-17T19:14:53.577Z,62.70
2022-10-17T19:17:56.814Z,49.53
2022-10-17T19:21:04.926Z,53.42
2022-10-17T19:24:12.120Z,44.97
2022-10-17T19:27:16.079Z,40.40
2022-10-17T19:30:19.177Z,33.55
2022-10-17T19:33:23.189Z,27.27
2022-10-17T19:36:32.524Z,28.60
2022-10-17T19:39:36.684Z,24.92
2022-10-17T19:42:40.148Z,23.73
2022-10-17T19:45:43.010Z,32.03
2022-10-17T19:48:46.431Z,26.35
2022-10-17T19:51:50.083Z,25.23
2022-10-17T19:54:53.636Z,26.35
2022-10-17T19:57:59.689Z,26.00
2022-10-17T20:01:06.499Z,27.30
2022-10-17T20:04:11.402Z,29.73
2022-10-17T20:07:14.884Z,30.33
2022-10-17T20:10:19.528Z,29.38
2022-10-17T20:13:23.275Z,26.40
2022-10-17T20:16:30.188Z,28.63
2022-10-17T20:19:33.971Z,24.97
2022-10-17T20:22:36.913Z,27.33
2022-10-17T20:25:40.215Z,25.88
2022-10-17T20:28:43.843Z,26.13
2022-10-17T20:31:48.876Z,26.27
2022-10-17T20:34:51.789Z,21.63
2022-10-17T20:37:54.805Z,22.48
2022-10-17T20:41:05.409Z,20.23
2022-10-17T20:44:08.910Z,18.33
2022-10-17T20:47:16.237Z,15.50
2022-10-17T20:50:21.087Z,16.60
2022-10-17T20:53:36.692Z,16.38
2022-10-17T20:56:41.124Z,15.02
2022-10-17T20:59:46.374Z,14.83
2022-10-17T21:02:50.721Z,13.85
2022-10-17T21:05:54.638Z,12.27
2022-10-17T21:08:58.495Z,13.75
2022-10-17T21:12:02.237Z,14.25
2022-10-17T21:15:05.920Z,13.88
2022-10-17T21:18:09.493Z,13.27
2022-10-17T21:21:14.612Z,13.20
2022-10-17T21:24:20.067Z,12.23
2022-10-17T21:27:23.015Z,11.98
2022-10-17T21:30:26.952Z,11.23
2022-10-17T21:33:29.826Z,12.65
2022-10-17T21:36:33.047Z,12.10
2022-10-17T21:39:37.201Z,12.50
2022-10-17T21:42:40.732Z,10.43
2022-10-17T21:45:44.612Z,13.35
2022-10-17T21:48:49.227Z,23.13
2022-10-17T21:51:53.987Z,21.37
2022-10-17T21:54:56.989Z,21.50
2022-10-17T21:58:00.243Z,24.80
2022-10-17T22:01:17.272Z,26.17
2022-10-17T22:04:21.222Z,20.02
2022-10-17T22:07:24.540Z,23.25
2022-10-17T22:10:28.460Z,28.08
2022-10-17T22:13:32.115Z,25.30
2022-10-17T22:16:36.443Z,23.08
2022-10-17T22:19:39.980Z,21.13
2022-10-17T22:22:43.827Z,17.87
2022-10-17T22:25:57.690Z,16.45
2022-10-17T22:29:02.051Z,14.30
2022-10-17T22:32:05.301Z,11.63
2022-10-17T22:35:09.484Z,13.35
2022-10-17T22:38:13.273Z,9.90
2022-10-17T22:41:17.151Z,9.27
2022-10-17T22:44:20.379Z,15.60
2022-10-17T22:47:24.397Z,19.40
2022-10-17T22:50:27.916Z,16.88
2022-10-17T22:53:31.483Z,10.13
2022-10-17T22:56:35.154Z,8.18
2022-10-17T22:59:38.374Z,12.43
2022-10-17T23:02:41.527Z,11.80
2022-10-17T23:05:46.033Z,11.98
2022-10-17T23:08:49.128Z,10.40
2022-10-17T23:11:52.748Z,10.25
2022-10-17T23:14:55.709Z,10.48
2022-10-17T23:17:59.363Z,12.55
2022-10-17T23:21:02.308Z,19.02
2022-10-17T23:24:05.590Z,23.73
2022-10-17T23:27:08.462Z,25.52
2022-10-17T23:30:12.702Z,18.52
2022-10-17T23:33:16.382Z,19.80
2022-10-17T23:36:21.736Z,19.23
2022-10-17T23:39:24.666Z,22.80
2022-10-17T23:42:28.706Z,23.77
2022-10-17T23:45:36.065Z,24.38
2022-10-17T23:48:41.168Z,21.60
2022-10-17T23:51:44.002Z,24.40
2022-10-17T23:54:47.669Z,27.33
2022-10-17T23:57:51.199Z,24.98
